Weather at Department of Public Safety Heliport

Public forecast

Using degrees Fahrenheit for public forecast. Weather courtesy of forecast.io.

Closest aviation weather report (METAR) to Department of Public Safety Heliport

Closest report is Stinson Municipal Airport, 1.9 nm (3.4 km) SW.

2024/07/20 14:53 (retrieved 49 minutes ago)

KSSF 201453Z 00000KT 10SM CLR 29/24 A3004 RMK AO2 SLP159 T02940239 51008

Closest aviation forecast (TAF) to Department of Public Safety Heliport

Closest forecast is Stinson Municipal Airport, 1.9 nm (3.4 km) SW.

2024/07/20 12:22 (retrieved 3 hours ago)

TAF KSSF 201120Z 2012/2112 VRB02KT P6SM FEW035 FM201900 13008KT P6SM SCT060 FM210600 16003KT P6SM FEW040